createdAt,value
2022-11-27T00:02:29.866Z,2.63
2022-11-27T00:05:39.473Z,3.53
2022-11-27T00:08:48.885Z,3.60
2022-11-27T00:11:57.215Z,2.90
2022-11-27T00:15:06.200Z,3.80
2022-11-27T00:18:14.556Z,4.30
2022-11-27T00:21:27.282Z,3.33
2022-11-27T00:24:35.538Z,4.07
2022-11-27T00:27:43.760Z,4.10
2022-11-27T00:30:52.024Z,3.50
2022-11-27T00:34:04.787Z,3.40
2022-11-27T00:37:14.848Z,3.50
2022-11-27T00:40:23.080Z,2.70
2022-11-27T00:43:32.488Z,3.50
2022-11-27T00:46:45.143Z,2.93
2022-11-27T00:49:53.449Z,3.17
2022-11-27T00:53:03.546Z,2.93
2022-11-27T00:56:16.720Z,2.90
2022-11-27T00:59:24.924Z,2.80
2022-11-27T01:02:33.397Z,3.07
2022-11-27T01:05:41.652Z,3.10
2022-11-27T01:08:51.363Z,3.20
2022-11-27T01:11:59.624Z,2.80
2022-11-27T01:15:09.567Z,3.33
2022-11-27T01:18:17.805Z,3.33
2022-11-27T01:21:29.512Z,3.03
2022-11-27T01:24:39.413Z,3.63
2022-11-27T01:27:47.785Z,3.40
2022-11-27T01:30:56.132Z,3.73
2022-11-27T01:34:07.369Z,3.63
2022-11-27T01:37:15.730Z,2.60
2022-11-27T01:40:26.091Z,2.77
2022-11-27T01:43:40.967Z,2.73
2022-11-27T01:46:52.884Z,2.70
2022-11-27T01:50:14.957Z,2.30
2022-11-27T01:53:23.253Z,2.40
2022-11-27T01:56:33.064Z,2.70
2022-11-27T01:59:42.966Z,3.00
2022-11-27T02:02:51.777Z,2.97
2022-11-27T02:06:00.177Z,2.80
2022-11-27T02:09:08.534Z,3.23
2022-11-27T02:12:25.869Z,2.83
2022-11-27T02:15:45.365Z,2.80
2022-11-27T02:19:01.539Z,2.43
2022-11-27T02:22:33.745Z,2.27
2022-11-27T02:26:00.364Z,3.27
2022-11-27T02:29:13.382Z,2.50
2022-11-27T02:32:32.717Z,2.93
2022-11-27T02:35:49.627Z,2.67
2022-11-27T02:39:06.209Z,2.23
2022-11-27T02:42:20.419Z,2.60
2022-11-27T02:45:35.695Z,2.67
2022-11-27T02:48:49.544Z,1.90
2022-11-27T02:52:02.493Z,2.33
2022-11-27T02:55:18.175Z,2.37
2022-11-27T02:58:29.916Z,2.70
2022-11-27T03:01:46.284Z,2.00
2022-11-27T03:04:58.602Z,2.40
2022-11-27T03:08:11.302Z,2.10
2022-11-27T03:11:20.020Z,2.37
2022-11-27T03:14:28.992Z,2.37
2022-11-27T03:17:53.303Z,2.80
2022-11-27T03:21:16.402Z,2.20
2022-11-27T03:24:25.727Z,1.97
2022-11-27T03:27:42.629Z,1.90
2022-11-27T03:30:51.100Z,1.67
2022-11-27T03:34:00.911Z,2.27
2022-11-27T03:37:10.075Z,2.23
2022-11-27T03:40:19.827Z,2.40
2022-11-27T03:43:35.280Z,2.50
2022-11-27T03:47:02.940Z,1.73
2022-11-27T03:50:29.546Z,2.10
2022-11-27T03:53:53.549Z,1.80
2022-11-27T03:57:15.793Z,2.07
2022-11-27T04:00:24.631Z,1.90
2022-11-27T04:03:33.331Z,2.00
2022-11-27T04:06:43.053Z,2.50
2022-11-27T04:09:51.227Z,2.43
2022-11-27T04:12:59.444Z,2.40
2022-11-27T04:16:09.296Z,2.27
2022-11-27T04:19:17.583Z,2.10
2022-11-27T04:22:27.204Z,2.50
2022-11-27T04:25:35.458Z,2.60
2022-11-27T04:28:43.675Z,2.40
2022-11-27T04:31:51.992Z,2.77
2022-11-27T04:35:00.374Z,2.53
2022-11-27T04:38:09.960Z,1.90
2022-11-27T04:41:18.177Z,1.97
2022-11-27T04:44:26.400Z,2.13
2022-11-27T04:47:34.773Z,2.47
2022-11-27T04:50:43.253Z,1.97
2022-11-27T04:53:52.847Z,1.97
2022-11-27T04:57:01.462Z,2.27
2022-11-27T05:00:11.328Z,2.30
2022-11-27T05:03:19.600Z,2.63
2022-11-27T05:06:28.202Z,2.30
2022-11-27T05:09:37.874Z,2.20
2022-11-27T05:12:46.163Z,2.13
2022-11-27T05:15:54.483Z,1.70
2022-11-27T05:19:02.981Z,2.00
2022-11-27T05:22:11.857Z,1.60
2022-11-27T05:25:21.433Z,1.60
2022-11-27T05:28:29.700Z,1.97
2022-11-27T05:31:49.067Z,3.17
2022-11-27T05:34:57.312Z,2.93
2022-11-27T05:38:05.643Z,3.50
2022-11-27T05:41:15.347Z,3.87
2022-11-27T05:44:23.672Z,3.30
2022-11-27T05:47:32.317Z,2.53
2022-11-27T05:50:41.085Z,2.13
2022-11-27T05:53:49.449Z,3.40
2022-11-27T05:56:58.992Z,2.80
2022-11-27T06:00:09.485Z,2.60
2022-11-27T06:03:17.852Z,3.13
2022-11-27T06:06:26.366Z,2.87
2022-11-27T06:09:34.769Z,2.47
2022-11-27T06:12:44.505Z,2.40
2022-11-27T06:15:52.678Z,2.70
2022-11-27T06:19:01.039Z,4.83
2022-11-27T06:22:09.273Z,3.73
2022-11-27T06:25:17.983Z,4.40
2022-11-27T06:28:28.249Z,3.80
2022-11-27T06:31:36.673Z,3.93
2022-11-27T06:34:44.880Z,4.87
2022-11-27T06:37:53.386Z,4.50
2022-11-27T06:41:06.548Z,4.00
2022-11-27T06:44:16.224Z,4.50
2022-11-27T06:47:25.681Z,3.80
2022-11-27T06:50:33.956Z,2.70
2022-11-27T06:53:43.828Z,2.93
2022-11-27T06:56:52.273Z,3.20
2022-11-27T07:00:02.508Z,22.83
2022-11-27T07:03:10.709Z,21.40
2022-11-27T07:06:22.745Z,16.23
2022-11-27T07:09:30.955Z,8.37
2022-11-27T07:12:39.254Z,4.63
2022-11-27T07:15:48.922Z,3.73
2022-11-27T07:19:01.552Z,3.83
2022-11-27T07:22:09.781Z,5.10
2022-11-27T07:25:18.393Z,3.50
2022-11-27T07:28:26.932Z,21.33
2022-11-27T07:31:36.617Z,8.00
2022-11-27T07:34:44.821Z,6.00
2022-11-27T07:37:53.264Z,6.07
2022-11-27T07:41:02.512Z,6.00
2022-11-27T07:44:11.112Z,4.73
2022-11-27T07:47:20.990Z,5.10
2022-11-27T07:50:29.233Z,5.63
2022-11-27T07:53:38.530Z,6.20
2022-11-27T07:56:46.747Z,7.20
2022-11-27T07:59:55.084Z,6.00
2022-11-27T08:03:05.029Z,6.30
2022-11-27T08:06:20.048Z,5.83
2022-11-27T08:09:30.620Z,5.33
2022-11-27T08:12:40.947Z,6.50
2022-11-27T08:15:49.451Z,6.80
2022-11-27T08:19:00.117Z,6.10
2022-11-27T08:22:13.172Z,10.57
2022-11-27T08:25:21.683Z,7.60
2022-11-27T08:28:29.964Z,6.17
2022-11-27T08:31:38.324Z,6.27
2022-11-27T08:34:47.906Z,6.03
2022-11-27T08:37:56.226Z,5.40
2022-11-27T08:41:07.041Z,4.77
2022-11-27T08:44:15.347Z,4.77
2022-11-27T08:47:23.527Z,4.77
2022-11-27T08:50:33.333Z,5.80
2022-11-27T08:53:45.455Z,6.23
2022-11-27T08:56:53.773Z,5.80
2022-11-27T09:00:02.046Z,4.70
2022-11-27T09:03:12.795Z,5.03
2022-11-27T09:06:28.112Z,4.97
2022-11-27T09:09:37.902Z,4.30
2022-11-27T09:12:46.492Z,4.17
2022-11-27T09:15:55.084Z,4.07
2022-11-27T09:19:03.804Z,4.60
2022-11-27T09:22:13.718Z,4.33
2022-11-27T09:25:22.213Z,3.30
2022-11-27T09:28:31.729Z,5.00
2022-11-27T09:31:40.246Z,5.00
2022-11-27T09:34:48.842Z,6.70
2022-11-27T09:37:58.927Z,4.17
2022-11-27T09:41:38.941Z,3.90
2022-11-27T09:44:55.774Z,6.03
2022-11-27T09:48:12.425Z,8.27
2022-11-27T09:51:34.045Z,5.27
2022-11-27T09:54:56.567Z,6.10
2022-11-27T09:58:14.187Z,4.70
2022-11-27T10:01:34.895Z,5.43
2022-11-27T10:05:12.466Z,4.93
2022-11-27T10:08:38.122Z,3.93
2022-11-27T10:12:02.608Z,4.27
2022-11-27T10:15:20.533Z,3.67
2022-11-27T10:18:41.595Z,4.27
2022-11-27T10:21:58.471Z,4.43
2022-11-27T10:25:19.197Z,4.00
2022-11-27T10:28:41.004Z,4.27
2022-11-27T10:31:53.678Z,4.07
2022-11-27T10:35:10.976Z,4.37
2022-11-27T10:38:24.559Z,4.40
2022-11-27T10:41:49.333Z,3.77
2022-11-27T10:45:05.615Z,3.67
2022-11-27T10:48:15.207Z,3.03
2022-11-27T10:51:31.995Z,3.30
2022-11-27T10:54:41.377Z,3.53
2022-11-27T10:58:07.468Z,2.97
2022-11-27T11:01:20.444Z,6.07
2022-11-27T11:04:39.184Z,3.37
2022-11-27T11:08:02.418Z,3.30
2022-11-27T11:11:11.947Z,4.80
2022-11-27T11:14:23.231Z,3.30
2022-11-27T11:17:37.173Z,2.77
2022-11-27T11:20:49.417Z,2.83
2022-11-27T11:24:02.607Z,3.00
2022-11-27T11:27:18.190Z,3.27
2022-11-27T11:30:31.311Z,3.23
2022-11-27T11:33:51.316Z,3.47
2022-11-27T11:37:03.301Z,2.73
2022-11-27T11:40:27.804Z,3.40
2022-11-27T11:43:38.834Z,2.97
2022-11-27T11:46:54.637Z,2.27
2022-11-27T11:50:04.536Z,2.90
2022-11-27T11:53:30.726Z,2.50
2022-11-27T11:56:50.433Z,3.20
2022-11-27T12:00:11.284Z,2.80
2022-11-27T12:03:40.821Z,3.03
2022-11-27T12:07:05.853Z,3.07
2022-11-27T12:10:26.217Z,3.50
2022-11-27T12:13:57.666Z,3.17
2022-11-27T12:17:29.180Z,3.43
2022-11-27T12:21:00.364Z,3.33
2022-11-27T12:24:32.080Z,3.00
2022-11-27T12:27:59.083Z,2.30
2022-11-27T12:31:21.226Z,2.00
2022-11-27T12:34:51.935Z,2.37
2022-11-27T12:38:27.999Z,2.00
2022-11-27T12:42:04.526Z,1.93
2022-11-27T12:45:24.363Z,2.10
2022-11-27T12:48:40.249Z,2.00
2022-11-27T12:51:54.966Z,2.50
2022-11-27T12:55:12.387Z,1.80
2022-11-27T12:58:31.652Z,1.60
2022-11-27T13:01:46.595Z,1.93
2022-11-27T13:05:03.545Z,2.23
2022-11-27T13:08:21.582Z,1.70
2022-11-27T13:11:36.049Z,1.70
2022-11-27T13:15:03.287Z,1.80
2022-11-27T13:18:23.840Z,1.80
2022-11-27T13:21:37.987Z,1.93
2022-11-27T13:24:48.071Z,2.07
2022-11-27T13:27:59.704Z,2.30
2022-11-27T13:31:23.263Z,2.10
2022-11-27T13:34:45.468Z,2.57
2022-11-27T13:38:07.506Z,2.37
2022-11-27T13:41:25.201Z,2.10
2022-11-27T13:44:38.650Z,2.60
2022-11-27T13:47:51.803Z,2.37
2022-11-27T13:51:01.919Z,2.33
2022-11-27T13:54:14.223Z,3.10
2022-11-27T13:57:24.493Z,2.40
2022-11-27T14:00:38.144Z,2.70
2022-11-27T14:03:49.528Z,2.93
2022-11-27T14:07:06.622Z,2.63
2022-11-27T14:10:20.059Z,3.10
2022-11-27T14:13:39.548Z,3.13
2022-11-27T14:17:03.610Z,2.87
2022-11-27T14:20:30.552Z,3.40
2022-11-27T14:23:52.811Z,3.80
2022-11-27T14:27:01.152Z,3.43
2022-11-27T14:30:32.499Z,3.70
2022-11-27T14:34:13.669Z,3.33
2022-11-27T14:37:26.002Z,3.93
2022-11-27T14:40:34.210Z,4.03
2022-11-27T14:43:42.519Z,3.60
2022-11-27T14:46:52.075Z,4.67
2022-11-27T14:50:01.983Z,4.23
2022-11-27T14:53:14.177Z,3.93
2022-11-27T14:56:23.074Z,4.47
2022-11-27T14:59:32.094Z,5.00
2022-11-27T15:02:40.669Z,6.27
2022-11-27T15:05:58.324Z,5.27
2022-11-27T15:09:34.602Z,6.43
2022-11-27T15:12:49.461Z,6.10
2022-11-27T15:16:04.597Z,5.73
2022-11-27T15:19:20.294Z,5.83
2022-11-27T15:22:28.736Z,6.50
2022-11-27T15:25:41.960Z,7.17
2022-11-27T15:28:54.341Z,6.40
2022-11-27T15:32:05.410Z,6.50
2022-11-27T15:35:16.756Z,5.33
2022-11-27T15:38:25.076Z,6.63
2022-11-27T15:41:37.418Z,7.10
2022-11-27T15:44:53.659Z,5.77
2022-11-27T15:48:03.603Z,5.50
2022-11-27T15:51:11.843Z,6.80
2022-11-27T15:54:20.817Z,9.23
2022-11-27T15:57:30.636Z,5.73
2022-11-27T16:00:39.831Z,5.70
2022-11-27T16:03:48.207Z,5.70
2022-11-27T16:06:56.985Z,5.37
2022-11-27T16:10:06.999Z,5.13
2022-11-27T16:13:18.418Z,6.17
2022-11-27T16:16:29.097Z,5.27
2022-11-27T16:19:37.777Z,4.47
2022-11-27T16:22:46.132Z,4.80
2022-11-27T16:25:58.340Z,5.30
2022-11-27T16:29:10.362Z,5.90
2022-11-27T16:32:18.669Z,5.07
2022-11-27T16:35:27.350Z,5.77
2022-11-27T16:38:37.374Z,5.30
2022-11-27T16:41:46.897Z,4.60
2022-11-27T16:44:57.350Z,5.77
2022-11-27T16:48:06.632Z,6.30
2022-11-27T16:51:19.948Z,5.60
2022-11-27T16:54:28.557Z,5.20
2022-11-27T16:57:37.622Z,5.57
2022-11-27T17:00:47.363Z,9.07
2022-11-27T17:03:56.626Z,9.40
2022-11-27T17:07:05.922Z,6.63
2022-11-27T17:10:14.167Z,7.60
2022-11-27T17:13:24.301Z,6.03
2022-11-27T17:16:35.739Z,5.47
2022-11-27T17:19:45.794Z,5.57
2022-11-27T17:22:54.408Z,6.00
2022-11-27T17:26:09.192Z,5.47
2022-11-27T17:29:21.616Z,5.47
2022-11-27T17:32:32.207Z,5.40
2022-11-27T17:35:40.875Z,5.37
2022-11-27T17:38:49.130Z,5.70
2022-11-27T17:41:57.623Z,5.80
2022-11-27T17:45:09.544Z,6.00
2022-11-27T17:48:20.315Z,5.23
2022-11-27T17:51:31.564Z,5.33
2022-11-27T17:54:39.986Z,5.87
2022-11-27T17:57:48.266Z,5.53
2022-11-27T18:00:56.677Z,5.47
2022-11-27T18:04:10.473Z,5.60
2022-11-27T18:07:20.126Z,6.57
2022-11-27T18:10:30.359Z,6.50
2022-11-27T18:13:39.562Z,6.83
2022-11-27T18:16:47.962Z,6.50
2022-11-27T18:19:59.024Z,6.77
2022-11-27T18:23:07.546Z,7.97
2022-11-27T18:26:19.388Z,13.53
2022-11-27T18:29:28.056Z,6.70
2022-11-27T18:32:38.215Z,6.03
2022-11-27T18:35:47.892Z,6.83
2022-11-27T18:38:56.338Z,7.37
2022-11-27T18:42:05.921Z,7.43
2022-11-27T18:45:31.897Z,8.27
2022-11-27T18:48:41.862Z,11.43
2022-11-27T18:51:53.202Z,8.33
2022-11-27T18:55:03.833Z,9.37
2022-11-27T18:58:13.832Z,10.30
2022-11-27T19:01:27.100Z,8.47
2022-11-27T19:04:37.419Z,8.10
2022-11-27T19:07:49.702Z,7.40
2022-11-27T19:11:02.647Z,6.93
2022-11-27T19:14:11.870Z,7.70
2022-11-27T19:17:24.734Z,7.10
2022-11-27T19:20:38.180Z,7.43
2022-11-27T19:23:50.540Z,7.90
2022-11-27T19:26:59.160Z,8.33
2022-11-27T19:30:09.485Z,8.83
2022-11-27T19:33:18.219Z,9.40
2022-11-27T19:36:28.480Z,7.63
2022-11-27T19:39:38.571Z,8.53
2022-11-27T19:42:46.994Z,8.43
2022-11-27T19:45:55.532Z,8.03
2022-11-27T19:49:07.742Z,7.37
2022-11-27T19:52:16.829Z,8.70
2022-11-27T19:55:26.784Z,8.33
2022-11-27T19:58:36.035Z,8.80
2022-11-27T20:01:45.178Z,7.73
2022-11-27T20:04:53.826Z,8.73
2022-11-27T20:08:02.264Z,7.93
2022-11-27T20:11:16.471Z,8.13
2022-11-27T20:14:25.085Z,7.53
2022-11-27T20:17:33.869Z,7.07
2022-11-27T20:20:42.284Z,7.13
2022-11-27T20:23:52.922Z,9.07
2022-11-27T20:27:04.064Z,7.60
2022-11-27T20:30:13.340Z,8.77
2022-11-27T20:33:21.723Z,7.00
2022-11-27T20:36:32.718Z,8.47
2022-11-27T20:39:42.815Z,7.73
2022-11-27T20:42:54.840Z,7.93
2022-11-27T20:46:04.003Z,7.37
2022-11-27T20:49:12.478Z,7.93
2022-11-27T20:52:20.706Z,6.83
2022-11-27T20:55:29.160Z,6.33
2022-11-27T20:58:46.615Z,6.10
2022-11-27T21:01:55.281Z,7.47
2022-11-27T21:05:04.008Z,7.10
2022-11-27T21:08:12.280Z,7.77
2022-11-27T21:11:25.177Z,6.70
2022-11-27T21:14:35.943Z,7.27
2022-11-27T21:17:45.980Z,7.47
2022-11-27T21:20:54.330Z,7.83
2022-11-27T21:24:03.625Z,8.20
2022-11-27T21:27:13.149Z,6.83
2022-11-27T21:30:23.692Z,7.07
2022-11-27T21:33:32.138Z,6.93
2022-11-27T21:36:40.999Z,7.30
2022-11-27T21:39:49.942Z,7.30
2022-11-27T21:42:58.262Z,7.60
2022-11-27T21:46:13.268Z,6.80
2022-11-27T21:49:22.690Z,6.73
2022-11-27T21:52:31.146Z,7.20
2022-11-27T21:55:41.772Z,7.47
2022-11-27T21:58:50.980Z,6.50
2022-11-27T22:02:01.009Z,6.47
2022-11-27T22:05:10.208Z,6.63
2022-11-27T22:08:18.496Z,6.40
2022-11-27T22:11:30.428Z,7.00
2022-11-27T22:14:39.403Z,6.57
2022-11-27T22:17:49.586Z,5.97
2022-11-27T22:20:58.089Z,6.77
2022-11-27T22:24:07.096Z,7.27
2022-11-27T22:27:15.375Z,6.27
2022-11-27T22:30:24.992Z,6.43
2022-11-27T22:33:37.002Z,6.33
2022-11-27T22:36:45.846Z,6.50
2022-11-27T22:39:54.511Z,6.97
2022-11-27T22:43:03.248Z,5.73
2022-11-27T22:46:16.529Z,6.00
2022-11-27T22:49:26.457Z,6.63
2022-11-27T22:52:34.846Z,6.00
2022-11-27T22:55:43.060Z,6.53
2022-11-27T22:59:06.074Z,7.03
2022-11-27T23:02:20.040Z,6.03
2022-11-27T23:05:29.894Z,6.40
2022-11-27T23:08:38.570Z,6.67
2022-11-27T23:11:48.559Z,7.53
2022-11-27T23:14:56.793Z,6.50
2022-11-27T23:18:05.429Z,7.03
2022-11-27T23:21:19.653Z,6.30
2022-11-27T23:24:27.930Z,6.90
2022-11-27T23:27:36.713Z,6.27
2022-11-27T23:30:45.245Z,6.67
2022-11-27T23:33:55.565Z,7.03
2022-11-27T23:37:05.252Z,6.63
2022-11-27T23:40:14.945Z,6.30
2022-11-27T23:43:23.415Z,6.23
2022-11-27T23:46:32.521Z,7.07
2022-11-27T23:49:40.737Z,7.00
2022-11-27T23:52:50.396Z,6.47
2022-11-27T23:56:06.087Z,6.90
2022-11-27T23:59:14.330Z,6.93
